Ekin, Indiana
Current Conditions -  °F | °C
As of 1:35 AM on Thursday 27 Nov 2014 (Local Time) from KTYQ Reporting Station
Overcast Overcast  
Wind Chill: -7°   Ceiling: 2000
Heat Index: -2°   Visibility: 10mi
Dew Point: -6°   Wind: 10mph
Humidity: 73%   Direction: 360°N
Pressure: 30.13"   Gusts: NA
Location:  40.1832°N, 85.9359°W
Report Text: KTYQ 270635Z AUTO 36009KT 10SM OVC020 M02/M06 A3013 RMK AO2 T10211064
Loading
Personal Weather Stations






























Interactive Weather Map New forecast layout! Learn more

10-Day Weather Forecast

Advertisements
Track Severe Weather on mobile